Time;durP1;ratioP1;P1;durP2;ratioP2;P2;SDS_P1;SDS_P2;PMS_P1;PMS_P2;Temp;Humidity;BMP_temperature;BMP_pressure;BME280_temperature;BME280_humidity;BME280_pressure;Samples;Min_cycle;Max_cycle;Signal;HPM_P1;HPM_P2
2021/07/19 00:00:39;;;;;;;12.23;6.40;;;18.00;99.90;;;;;;5114197;28;20036;-68
2021/07/19 00:03:05;;;;;;;12.15;6.90;;;18.00;99.90;;;;;;5114511;28;20376;-68
2021/07/19 00:05:31;;;;;;;11.30;6.22;;;17.90;99.90;;;;;;5114214;28;20047;-68
2021/07/19 00:07:57;;;;;;;11.20;6.72;;;17.90;99.90;;;;;;5114320;28;20070;-68
2021/07/19 00:10:24;;;;;;;13.68;5.97;;;17.90;99.90;;;;;;5112754;28;20114;-68
2021/07/19 00:12:50;;;;;;;14.43;6.75;;;17.90;99.90;;;;;;5114161;28;20065;-68
2021/07/19 00:15:27;;;;;;;12.32;6.47;;;17.80;99.90;;;;;;5113989;28;20089;-68
2021/07/19 00:17:53;;;;;;;10.93;6.20;;;17.90;99.90;;;;;;5114343;28;20044;-68
2021/07/19 00:20:19;;;;;;;12.05;6.20;;;17.80;99.90;;;;;;5113935;28;20126;-68
2021/07/19 00:22:45;;;;;;;17.92;6.80;;;17.80;99.90;;;;;;5114012;28;20114;-68
2021/07/19 00:25:13;;;;;;;11.02;5.50;;;17.80;99.90;;;;;;5114101;28;20044;-68
2021/07/19 00:27:40;;;;;;;14.77;6.32;;;17.80;99.90;;;;;;5114229;28;20040;-68
2021/07/19 00:30:07;;;;;;;11.30;6.20;;;17.80;99.90;;;;;;5113546;27;20035;-68
2021/07/19 00:32:33;;;;;;;12.15;6.40;;;17.80;99.90;;;;;;5114264;28;20039;-68
2021/07/19 00:34:59;;;;;;;11.77;6.15;;;17.80;99.90;;;;;;5113820;28;20040;-68
2021/07/19 00:37:25;;;;;;;15.25;6.28;;;17.80;99.90;;;;;;5114034;28;20085;-68
2021/07/19 00:39:51;;;;;;;10.65;5.72;;;17.80;99.90;;;;;;5113811;28;20036;-68
2021/07/19 00:42:16;;;;;;;12.02;5.95;;;17.70;99.90;;;;;;5113696;28;20487;-68
2021/07/19 00:44:42;;;;;;;8.43;5.43;;;17.70;99.90;;;;;;5113953;28;20449;-68
2021/07/19 00:47:10;;;;;;;14.50;6.90;;;17.70;99.90;;;;;;5113919;28;20031;-68
2021/07/19 00:49:36;;;;;;;12.35;6.25;;;17.70;99.90;;;;;;5114098;28;20043;-68
2021/07/19 00:52:03;;;;;;;8.80;5.53;;;17.70;99.90;;;;;;5113549;28;20450;-68
2021/07/19 00:54:31;;;;;;;12.23;6.25;;;17.60;99.90;;;;;;5117157;28;20043;-68
2021/07/19 00:56:58;;;;;;;12.48;5.95;;;17.60;99.90;;;;;;5118569;27;20050;-68
2021/07/19 00:59:26;;;;;;;12.25;6.22;;;17.70;99.90;;;;;;5117680;28;20388;-68
2021/07/19 01:01:54;;;;;;;14.73;6.43;;;17.60;99.90;;;;;;5118066;28;20395;-68
2021/07/19 01:04:22;;;;;;;11.48;5.40;;;17.60;99.90;;;;;;5117966;28;20040;-68
2021/07/19 01:06:51;;;;;;;13.90;6.47;;;17.70;99.90;;;;;;5118010;27;20036;-68
2021/07/19 01:09:16;;;;;;;11.90;5.75;;;17.70;99.90;;;;;;5117667;28;20259;-68
2021/07/19 01:11:42;;;;;;;9.18;5.35;;;17.70;99.90;;;;;;5117772;28;20161;-69
2021/07/19 01:14:08;;;;;;;11.23;6.30;;;17.60;99.90;;;;;;5117723;28;20443;-68
2021/07/19 01:16:34;;;;;;;13.40;6.32;;;17.70;99.90;;;;;;5117912;28;20036;-69
2021/07/19 01:19:00;;;;;;;14.65;6.40;;;17.70;99.90;;;;;;5117586;28;20110;-69
2021/07/19 01:22:08;;;;;;;16.05;5.88;;;17.70;99.90;;;;;;5117907;28;20122;-68
2021/07/19 01:25:05;;;;;;;13.65;6.43;;;17.50;99.90;;;;;;5106156;28;20051;-68
2021/07/19 01:27:59;;;;;;;12.80;5.85;;;17.40;99.90;;;;;;5117177;28;20511;-69
2021/07/19 01:30:29;;;;;;;15.32;6.43;;;17.50;99.90;;;;;;5116948;28;20567;-68
2021/07/19 01:32:58;;;;;;;11.98;5.85;;;17.50;99.90;;;;;;5117582;28;20074;-68
2021/07/19 01:35:25;;;;;;;11.30;5.55;;;17.50;99.90;;;;;;5117673;27;20039;-68
2021/07/19 01:37:51;;;;;;;14.88;5.40;;;17.50;99.90;;;;;;5117393;28;20048;-68
2021/07/19 01:40:17;;;;;;;15.75;6.32;;;17.50;99.90;;;;;;5116647;28;20049;-68
2021/07/19 01:42:45;;;;;;;13.50;6.07;;;17.50;99.90;;;;;;5117869;28;20483;-68
2021/07/19 01:45:12;;;;;;;11.45;6.25;;;17.50;99.90;;;;;;5117150;28;20043;-68
2021/07/19 01:47:39;;;;;;;12.02;5.43;;;17.50;99.90;;;;;;5117101;28;20105;-68
2021/07/19 01:50:07;;;;;;;13.40;6.63;;;17.50;99.90;;;;;;5116692;28;20047;-68
2021/07/19 01:52:32;;;;;;;20.48;6.07;;;17.40;99.90;;;;;;5116952;28;20039;-68
2021/07/19 01:54:58;;;;;;;11.70;7.15;;;17.50;99.90;;;;;;5116686;28;20484;-68
2021/07/19 01:57:24;;;;;;;13.10;6.28;;;17.40;99.90;;;;;;5116900;28;20044;-68
2021/07/19 01:59:50;;;;;;;16.48;6.22;;;17.50;99.90;;;;;;5116657;28;20047;-68
2021/07/19 02:02:20;;;;;;;13.68;7.50;;;17.50;99.90;;;;;;5117136;28;20040;-68
2021/07/19 02:04:46;;;;;;;19.42;6.20;;;17.40;99.90;;;;;;5115221;28;20399;-68
2021/07/19 02:07:13;;;;;;;11.55;6.22;;;17.50;99.90;;;;;;5116509;28;20107;-68
2021/07/19 02:09:39;;;;;;;18.25;7.32;;;17.50;99.90;;;;;;5116507;28;20039;-68
2021/07/19 02:12:08;;;;;;;11.15;6.03;;;17.40;99.90;;;;;;5116404;28;20043;-69
2021/07/19 02:14:38;;;;;;;14.45;5.88;;;17.50;99.90;;;;;;5116417;28;20035;-68
2021/07/19 02:17:07;;;;;;;12.32;6.03;;;17.40;99.90;;;;;;5116595;28;20035;-68
2021/07/19 02:19:35;;;;;;;16.10;6.82;;;17.40;99.90;;;;;;5116012;28;20482;-68
2021/07/19 02:22:01;;;;;;;15.27;6.47;;;17.40;99.90;;;;;;5116676;28;20043;-68
2021/07/19 02:24:27;;;;;;;13.27;5.57;;;17.30;99.90;;;;;;5116707;28;20043;-68
2021/07/19 02:26:55;;;;;;;16.77;6.63;;;17.40;99.90;;;;;;5116310;28;20067;-68
2021/07/19 02:29:22;;;;;;;14.65;6.57;;;17.40;99.90;;;;;;5116111;28;20096;-68
2021/07/19 02:31:51;;;;;;;12.98;6.47;;;17.40;99.90;;;;;;5116262;28;20506;-68
2021/07/19 02:34:19;;;;;;;12.70;6.82;;;17.40;99.90;;;;;;5115989;28;20048;-68
2021/07/19 02:36:46;;;;;;;14.93;6.63;;;17.30;99.90;;;;;;5116367;28;20114;-68
2021/07/19 02:39:13;;;;;;;13.23;6.25;;;17.40;99.90;;;;;;5115695;28;20088;-68
2021/07/19 02:41:42;;;;;;;14.02;6.38;;;17.30;99.90;;;;;;5115795;28;20036;-68
2021/07/19 02:44:08;;;;;;;18.52;7.10;;;17.30;99.90;;;;;;5116063;27;20088;-68
2021/07/19 02:46:36;;;;;;;17.08;7.22;;;17.20;99.90;;;;;;5116040;28;20071;-68
2021/07/19 02:49:09;;;;;;;17.30;7.18;;;17.20;99.90;;;;;;5115783;28;20036;-68
2021/07/19 02:51:35;;;;;;;15.80;6.32;;;17.20;99.90;;;;;;5115734;28;20081;-68
2021/07/19 02:54:03;;;;;;;12.73;6.25;;;17.10;99.90;;;;;;5115688;28;20039;-68
2021/07/19 02:56:33;;;;;;;14.05;6.40;;;17.10;99.90;;;;;;5115942;28;20111;-68
2021/07/19 02:58:59;;;;;;;10.43;6.75;;;17.10;99.90;;;;;;5115182;28;20035;-68
2021/07/19 03:01:26;;;;;;;10.02;5.85;;;17.00;99.90;;;;;;5115474;28;20440;-68
2021/07/19 03:03:56;;;;;;;15.18;5.90;;;17.00;99.90;;;;;;5115346;28;20079;-68
2021/07/19 03:06:27;;;;;;;12.50;5.68;;;17.00;99.90;;;;;;5115835;28;20043;-68
2021/07/19 03:08:55;;;;;;;16.40;7.35;;;17.00;99.90;;;;;;5115264;28;20040;-68
2021/07/19 03:11:34;;;;;;;13.60;6.03;;;16.90;99.90;;;;;;5115345;28;20035;-68
2021/07/19 03:14:01;;;;;;;12.95;6.40;;;16.90;99.90;;;;;;5115244;28;20051;-68
2021/07/19 03:16:28;;;;;;;11.85;6.55;;;16.90;99.90;;;;;;5115130;28;20047;-68
2021/07/19 03:18:56;;;;;;;12.27;6.80;;;16.90;99.90;;;;;;5115554;28;20047;-68
2021/07/19 03:21:23;;;;;;;14.90;6.70;;;16.90;99.90;;;;;;5115179;28;20108;-68
2021/07/19 03:23:52;;;;;;;18.20;6.57;;;16.90;99.90;;;;;;5115564;28;20047;-69
2021/07/19 03:26:21;;;;;;;10.93;5.90;;;16.90;99.90;;;;;;5115507;28;20531;-68
2021/07/19 03:28:47;;;;;;;15.55;6.55;;;16.90;99.90;;;;;;5115451;28;20040;-68
2021/07/19 03:31:13;;;;;;;10.05;6.82;;;16.90;99.90;;;;;;5115127;28;20035;-68
2021/07/19 03:33:43;;;;;;;15.52;6.80;;;16.90;99.90;;;;;;5115416;28;20045;-68
2021/07/19 03:36:11;;;;;;;14.13;6.55;;;16.90;99.90;;;;;;5114803;28;20411;-68
2021/07/19 03:38:38;;;;;;;14.20;6.10;;;16.90;99.90;;;;;;5114882;28;20069;-69
2021/07/19 03:41:05;;;;;;;12.50;6.35;;;17.00;99.90;;;;;;5115113;28;20035;-68
2021/07/19 03:43:33;;;;;;;15.80;7.18;;;17.00;99.90;;;;;;5114762;28;20039;-68
2021/07/19 03:45:59;;;;;;;13.13;6.18;;;17.00;99.90;;;;;;5114988;28;20063;-68
2021/07/19 03:48:28;;;;;;;12.30;7.28;;;17.00;99.90;;;;;;5114623;28;20560;-69
2021/07/19 03:50:55;;;;;;;16.35;7.00;;;17.00;99.90;;;;;;5114348;28;20554;-68
2021/07/19 03:53:21;;;;;;;14.35;6.50;;;17.00;99.90;;;;;;5114365;28;20028;-68
2021/07/19 03:55:49;;;;;;;13.27;7.07;;;17.00;99.90;;;;;;5114328;28;20119;-68
2021/07/19 03:58:15;;;;;;;10.20;6.63;;;17.10;99.90;;;;;;5114698;28;20118;-68
2021/07/19 04:00:42;;;;;;;14.48;6.50;;;17.00;99.90;;;;;;5114183;28;20119;-68
2021/07/19 04:03:22;;;;;;;15.13;7.38;;;17.00;99.90;;;;;;5114366;28;20042;-68
2021/07/19 04:05:55;;;;;;;14.50;7.15;;;17.10;99.90;;;;;;5114253;28;20041;-68
2021/07/19 04:08:22;;;;;;;;;;;17.00;99.90;;;;;;5113611;28;20433;-68
2021/07/19 04:10:50;;;;;;;13.40;6.43;;;17.00;99.90;;;;;;5113843;28;19974;-68
2021/07/19 04:13:17;;;;;;;14.98;7.40;;;17.00;99.90;;;;;;5114389;28;20051;-68
2021/07/19 04:15:49;;;;;;;12.55;7.07;;;17.10;99.90;;;;;;5114225;28;20047;-68
2021/07/19 04:18:16;;;;;;;12.70;6.15;;;17.10;99.90;;;;;;5114763;28;20062;-68
2021/07/19 04:20:43;;;;;;;13.90;7.10;;;17.10;99.90;;;;;;5114407;28;20036;-68
2021/07/19 04:23:11;;;;;;;16.75;6.18;;;17.10;99.90;;;;;;5114062;28;20060;-68
2021/07/19 04:25:38;;;;;;;13.32;6.72;;;17.10;99.90;;;;;;5114453;28;20567;-68
2021/07/19 04:28:05;;;;;;;11.20;6.75;;;17.10;99.90;;;;;;5113179;27;20073;-68
2021/07/19 04:30:33;;;;;;;14.55;6.82;;;17.00;99.90;;;;;;5113467;28;20564;-68
2021/07/19 04:32:59;;;;;;;16.05;7.50;;;17.10;99.90;;;;;;5102526;28;20065;-68
2021/07/19 04:35:25;;;;;;;22.85;7.22;;;17.10;99.90;;;;;;5093387;28;20770;-68
2021/07/19 04:37:53;;;;;;;12.45;6.13;;;17.10;99.90;;;;;;5093601;28;20071;-68
2021/07/19 04:40:19;;;;;;;12.48;6.32;;;17.10;99.90;;;;;;5092961;28;20032;-67
2021/07/19 04:42:45;;;;;;;14.13;6.45;;;17.10;99.90;;;;;;5093594;28;20043;-67
2021/07/19 04:45:20;;;;;;;15.07;7.32;;;17.00;99.90;;;;;;5093830;28;20039;-67
2021/07/19 04:47:50;;;;;;;11.63;5.75;;;17.10;99.90;;;;;;5093948;28;20036;-67
2021/07/19 04:50:17;;;;;;;11.98;6.18;;;17.10;99.90;;;;;;5092951;28;20044;-67
2021/07/19 04:52:43;;;;;;;12.10;6.32;;;17.00;99.90;;;;;;5093504;28;20186;-67
2021/07/19 04:55:18;;;;;;;13.25;5.57;;;17.00;99.90;;;;;;5093577;28;20097;-67
2021/07/19 04:57:45;;;;;;;11.50;6.00;;;17.00;99.90;;;;;;5094008;28;20035;-67
2021/07/19 05:00:12;;;;;;;13.00;6.35;;;17.10;99.90;;;;;;5093286;28;20036;-67
2021/07/19 05:02:40;;;;;;;13.93;6.30;;;17.00;99.90;;;;;;5093816;28;20487;-67
2021/07/19 05:05:09;;;;;;;14.77;5.68;;;16.90;99.90;;;;;;5092408;28;20048;-67
2021/07/19 05:07:37;;;;;;;14.40;5.75;;;16.90;99.90;;;;;;5093296;28;20471;-67
2021/07/19 05:10:04;;;;;;;9.88;5.25;;;16.90;99.90;;;;;;5093197;28;20044;-67
2021/07/19 05:12:33;;;;;;;12.43;5.75;;;17.00;99.90;;;;;;5093311;28;20111;-67
2021/07/19 05:15:00;;;;;;;10.70;5.55;;;16.90;99.90;;;;;;5093482;28;20040;-67
2021/07/19 05:17:29;;;;;;;9.60;5.65;;;16.90;99.90;;;;;;5093406;28;20127;-67
2021/07/19 05:19:55;;;;;;;12.88;5.40;;;17.00;99.90;;;;;;5091983;28;20044;-67
2021/07/19 05:22:21;;;;;;;10.18;5.65;;;17.00;99.90;;;;;;5093256;28;20036;-67
2021/07/19 05:24:54;;;;;;;11.88;5.57;;;17.10;99.90;;;;;;5093743;28;20044;-67
2021/07/19 05:27:19;;;;;;;11.90;5.43;;;17.10;99.90;;;;;;5093219;28;20036;-67
2021/07/19 05:29:45;;;;;;;13.82;5.35;;;17.10;99.90;;;;;;5092880;28;20059;-67
2021/07/19 05:32:11;;;;;;;8.98;4.65;;;17.10;99.90;;;;;;5092984;28;20036;-67
2021/07/19 05:34:37;;;;;;;10.07;4.70;;;17.20;99.90;;;;;;5093138;28;20101;-67
2021/07/19 05:37:03;;;;;;;9.30;4.82;;;17.20;99.90;;;;;;5093488;28;20075;-67
2021/07/19 05:39:29;;;;;;;11.63;5.35;;;17.30;99.90;;;;;;5094392;28;20101;-67
2021/07/19 05:41:55;;;;;;;14.23;4.85;;;17.30;99.90;;;;;;5097268;28;20036;-67
2021/07/19 05:44:21;;;;;;;8.75;4.78;;;17.20;99.90;;;;;;5096882;28;20044;-67
2021/07/19 05:46:46;;;;;;;12.77;5.25;;;17.30;99.90;;;;;;5097138;28;20058;-67
2021/07/19 05:49:12;;;;;;;11.57;4.63;;;17.40;99.90;;;;;;5096433;28;20043;-67
2021/07/19 05:51:38;;;;;;;11.75;4.97;;;17.40;99.90;;;;;;5097063;28;20047;-67
2021/07/19 05:54:04;;;;;;;9.88;4.10;;;17.20;99.90;;;;;;5096490;28;20376;-67
2021/07/19 05:56:31;;;;;;;12.68;5.00;;;17.20;99.90;;;;;;5096575;28;20040;-67
2021/07/19 05:59:12;;;;;;;11.32;4.95;;;17.30;99.90;;;;;;5096238;28;20388;-67
2021/07/19 06:01:38;;;;;;;9.98;4.43;;;17.30;99.90;;;;;;5096384;28;20043;-67
2021/07/19 06:04:04;;;;;;;9.25;4.18;;;17.40;99.90;;;;;;5096248;28;20047;-67
2021/07/19 06:06:30;;;;;;;11.25;4.40;;;17.40;99.90;;;;;;5096740;28;20044;-67
2021/07/19 06:08:56;;;;;;;10.07;4.57;;;17.20;99.90;;;;;;5095730;28;20036;-67
2021/07/19 06:11:22;;;;;;;16.08;5.68;;;17.30;99.90;;;;;;5096316;28;20051;-67
2021/07/19 06:13:48;;;;;;;13.35;4.90;;;17.30;99.90;;;;;;5096141;28;20040;-67
2021/07/19 06:16:13;;;;;;;7.75;4.00;;;17.40;99.90;;;;;;5096198;28;20036;-67
2021/07/19 06:18:39;;;;;;;15.60;4.45;;;17.40;99.90;;;;;;5095812;28;20036;-67
2021/07/19 06:21:05;;;;;;;8.07;3.83;;;17.30;99.90;;;;;;5096000;28;20159;-67
2021/07/19 06:23:31;;;;;;;13.35;4.57;;;17.30;99.90;;;;;;5096074;28;20531;-67
2021/07/19 06:25:57;;;;;;;7.85;3.90;;;17.40;99.90;;;;;;5095835;28;20117;-67
2021/07/19 06:28:22;;;;;;;10.50;4.32;;;17.50;99.90;;;;;;5095690;28;20115;-67
2021/07/19 06:30:48;;;;;;;9.00;3.70;;;17.50;99.90;;;;;;5094287;28;20085;-67
2021/07/19 06:33:14;;;;;;;10.73;4.18;;;17.70;99.90;;;;;;5095855;28;20434;-67
2021/07/19 06:35:40;;;;;;;8.55;3.80;;;17.70;99.90;;;;;;5095995;28;20040;-68
2021/07/19 06:38:06;;;;;;;14.68;4.22;;;17.70;99.90;;;;;;5095885;28;20051;-67
2021/07/19 06:40:32;;;;;;;8.23;4.10;;;17.80;99.90;;;;;;5095079;28;20040;-67
2021/07/19 06:42:57;;;;;;;13.70;5.20;;;17.70;99.90;;;;;;5095846;28;20044;-67
2021/07/19 06:45:23;;;;;;;6.30;3.78;;;17.60;99.90;;;;;;5095827;28;20472;-67
2021/07/19 06:47:49;;;;;;;9.30;4.28;;;17.50;99.90;;;;;;5095450;28;20394;-67
2021/07/19 06:50:14;;;;;;;10.75;4.35;;;17.60;99.90;;;;;;5094605;28;20043;-67
2021/07/19 06:52:41;;;;;;;11.85;4.70;;;17.50;99.90;;;;;;5095336;28;20039;-67
2021/07/19 06:55:09;;;;;;;12.55;5.07;;;17.60;99.90;;;;;;5095081;28;20467;-67
2021/07/19 06:57:36;;;;;;;15.82;4.38;;;17.50;99.90;;;;;;5096020;28;20047;-67
2021/07/19 07:00:04;;;;;;;16.40;4.95;;;17.60;99.90;;;;;;5094956;28;20036;-67
2021/07/19 07:02:30;;;;;;;11.52;4.40;;;17.50;99.90;;;;;;5095429;28;20047;-67
2021/07/19 07:04:55;;;;;;;11.48;4.15;;;17.60;99.90;;;;;;5095237;28;20044;-67
2021/07/19 07:07:21;;;;;;;7.18;3.88;;;17.50;99.90;;;;;;5093979;28;20044;-67
2021/07/19 07:09:48;;;;;;;12.05;4.72;;;17.60;99.90;;;;;;5094686;28;20487;-67
2021/07/19 07:12:13;;;;;;;12.65;4.45;;;17.70;99.90;;;;;;5094898;28;20040;-67
2021/07/19 07:14:39;;;;;;;16.23;5.10;;;17.70;99.90;;;;;;5095126;28;20047;-67
2021/07/19 07:17:05;;;;;;;12.00;4.72;;;17.80;99.90;;;;;;5094919;28;20036;-67
2021/07/19 07:19:31;;;;;;;9.88;4.68;;;17.90;99.90;;;;;;5094572;28;20036;-67
2021/07/19 07:21:56;;;;;;;12.02;4.40;;;17.90;99.90;;;;;;5094937;28;20039;-67
2021/07/19 07:24:22;;;;;;;13.80;4.47;;;17.80;99.90;;;;;;5094743;28;20040;-67
2021/07/19 07:26:48;;;;;;;13.43;4.70;;;17.80;99.90;;;;;;5095191;28;20051;-67
2021/07/19 07:29:14;;;;;;;8.23;4.28;;;17.70;99.90;;;;;;5094277;28;20074;-68
2021/07/19 07:31:39;;;;;;;11.02;4.30;;;18.00;99.90;;;;;;5094707;28;20036;-67
2021/07/19 07:34:05;;;;;;;11.10;4.68;;;18.00;99.90;;;;;;5094559;28;20082;-67
2021/07/19 07:36:33;;;;;;;8.75;4.35;;;18.10;99.90;;;;;;5094538;28;20048;-67
2021/07/19 07:39:00;;;;;;;11.15;4.43;;;18.20;99.90;;;;;;5094214;28;20048;-67
2021/07/19 07:41:29;;;;;;;12.52;4.28;;;18.40;99.90;;;;;;5094270;28;20040;-67
2021/07/19 07:43:55;;;;;;;8.52;4.45;;;18.60;99.90;;;;;;5093665;28;20044;-67
2021/07/19 07:46:20;;;;;;;9.82;4.57;;;18.80;99.90;;;;;;5094422;28;20038;-67
2021/07/19 07:48:46;;;;;;;10.57;4.63;;;19.10;99.90;;;;;;5094466;28;20055;-67
2021/07/19 07:51:12;;;;;;;12.88;4.00;;;19.10;99.90;;;;;;5094161;28;20032;-68
2021/07/19 07:53:38;;;;;;;11.88;3.95;;;18.50;99.90;;;;;;5094273;28;20067;-67
2021/07/19 07:56:04;;;;;;;8.52;3.70;;;18.50;99.90;;;;;;5094654;28;20495;-67
2021/07/19 07:58:30;;;;;;;8.13;3.95;;;18.30;99.90;;;;;;5093878;28;20032;-68
2021/07/19 08:00:56;;;;;;;9.32;4.43;;;18.30;99.90;;;;;;5094130;28;20127;-67
2021/07/19 08:03:21;;;;;;;8.00;4.05;;;18.20;99.90;;;;;;5093992;28;20040;-67
2021/07/19 08:05:48;;;;;;;7.13;4.28;;;18.80;99.90;;;;;;5094227;28;20094;-67
2021/07/19 08:08:14;;;;;;;9.48;3.92;;;18.90;99.90;;;;;;5094223;28;20081;-67
2021/07/19 08:10:40;;;;;;;8.52;4.28;;;18.60;99.90;;;;;;5093496;28;20036;-68
2021/07/19 08:13:06;;;;;;;8.30;3.50;;;18.70;99.90;;;;;;5094077;28;20521;-68
2021/07/19 08:15:34;;;;;;;12.13;3.67;;;18.60;99.90;;;;;;5093774;28;20073;-67
2021/07/19 08:17:59;;;;;;;10.25;3.83;;;18.30;99.90;;;;;;5093934;28;20114;-67
2021/07/19 08:20:25;;;;;;;7.38;3.47;;;18.50;99.90;;;;;;5093546;28;20613;-67
2021/07/19 08:22:51;;;;;;;10.00;3.70;;;18.50;99.90;;;;;;5094495;28;20031;-68
2021/07/19 08:25:18;;;;;;;6.72;3.67;;;18.30;99.90;;;;;;5093812;28;20089;-68
2021/07/19 08:27:44;;;;;;;7.00;3.38;;;18.20;99.90;;;;;;5092978;28;20052;-68
2021/07/19 08:30:12;;;;;;;9.82;3.22;;;18.40;99.90;;;;;;5093328;28;20047;-67
2021/07/19 08:32:38;;;;;;;7.10;3.22;;;18.40;99.90;;;;;;5092861;28;20040;-67
2021/07/19 08:35:09;;;;;;;4.47;2.92;;;18.50;99.90;;;;;;5094203;28;20046;-67
2021/07/19 08:37:44;;;;;;;6.40;3.05;;;19.10;99.90;;;;;;5094088;28;20089;-67
2021/07/19 08:40:11;;;;;;;8.10;3.90;;;19.10;99.90;;;;;;5093401;28;20089;-68
2021/07/19 08:42:38;;;;;;;9.65;3.00;;;18.90;99.90;;;;;;5093756;28;20123;-67
2021/07/19 08:45:06;;;;;;;5.85;2.95;;;18.80;99.90;;;;;;5093584;28;20077;-67
2021/07/19 08:47:36;;;;;;;7.47;3.05;;;19.30;99.90;;;;;;5093888;28;20117;-68
2021/07/19 08:50:02;;;;;;;5.07;3.00;;;19.10;98.60;;;;;;5093413;28;20063;-68
2021/07/19 08:52:28;;;;;;;5.43;2.65;;;19.10;98.50;;;;;;5093574;28;20498;-68
2021/07/19 08:54:56;;;;;;;11.93;3.40;;;19.20;99.90;;;;;;5093482;28;20539;-68
2021/07/19 08:57:23;;;;;;;8.65;3.25;;;19.20;99.20;;;;;;5093461;28;20114;-68
2021/07/19 08:59:49;;;;;;;5.88;2.78;;;18.80;98.70;;;;;;5093062;28;20476;-68
2021/07/19 09:02:15;;;;;;;10.68;3.15;;;19.00;99.60;;;;;;5093117;28;20044;-68
2021/07/19 09:04:44;;;;;;;8.23;3.10;;;18.80;98.90;;;;;;5093527;28;20468;-68
2021/07/19 09:07:11;;;;;;;7.82;2.60;;;19.10;99.90;;;;;;5093471;28;20498;-68
2021/07/19 09:09:37;;;;;;;7.28;3.05;;;19.20;99.80;;;;;;5093011;28;20044;-68
2021/07/19 09:12:05;;;;;;;8.10;3.30;;;19.40;99.30;;;;;;5093328;28;20092;-68
2021/07/19 09:14:31;;;;;;;8.20;2.92;;;19.70;99.90;;;;;;5095558;28;20047;-68
2021/07/19 09:16:57;;;;;;;7.90;2.75;;;20.10;98.30;;;;;;5097586;28;20050;-68
2021/07/19 09:19:26;;;;;;;5.68;2.80;;;20.60;97.60;;;;;;5096796;28;20087;-68
2021/07/19 09:22:00;;;;;;;6.15;2.70;;;20.60;95.90;;;;;;5097118;28;20044;-68
2021/07/19 09:24:29;;;;;;;8.38;2.97;;;20.90;96.80;;;;;;5097071;28;20052;-68
2021/07/19 09:26:56;;;;;;;4.70;3.03;;;20.80;94.70;;;;;;5097031;28;20036;-68
2021/07/19 09:29:23;;;;;;;9.90;3.25;;;20.60;96.20;;;;;;5096650;28;20113;-68
2021/07/19 09:31:57;;;;;;;5.50;2.72;;;20.40;96.40;;;;;;5096967;28;20094;-68
2021/07/19 09:34:28;;;;;;;7.43;3.20;;;20.50;96.40;;;;;;5097036;28;20074;-68
2021/07/19 09:37:07;;;;;;;6.18;2.85;;;20.40;94.70;;;;;;5096958;28;20032;-68
2021/07/19 09:39:39;;;;;;;4.63;2.85;;;20.80;95.30;;;;;;5096748;28;20071;-68
2021/07/19 09:42:06;;;;;;;6.32;3.15;;;20.70;94.10;;;;;;5096703;28;20043;-68
2021/07/19 09:44:32;;;;;;;12.65;3.00;;;20.60;93.50;;;;;;5096636;28;20040;-68
2021/07/19 09:47:03;;;;;;;10.55;2.85;;;20.30;92.80;;;;;;5096907;28;20074;-68
2021/07/19 09:49:30;;;;;;;5.63;2.55;;;20.30;93.20;;;;;;5096409;28;20040;-68
2021/07/19 09:52:11;;;;;;;7.28;2.70;;;21.00;94.90;;;;;;5096843;28;20465;-68
2021/07/19 09:54:45;;;;;;;8.55;2.90;;;20.80;91.70;;;;;;5096699;28;20048;-68
2021/07/19 09:57:12;;;;;;;5.28;2.40;;;21.20;91.10;;;;;;5096624;28;20047;-68
2021/07/19 09:59:51;;;;;;;8.93;2.67;;;21.50;91.00;;;;;;5096501;28;20123;-68
2021/07/19 10:02:39;;;;;;;8.93;3.20;;;21.60;91.10;;;;;;5096908;28;20425;-68
2021/07/19 10:05:09;;;;;;;7.95;3.03;;;21.40;91.40;;;;;;5096385;28;20071;-68
2021/07/19 10:07:46;;;;;;;5.90;2.55;;;21.40;93.30;;;;;;5096448;28;20040;-68
2021/07/19 10:10:12;;;;;;;8.77;2.85;;;21.30;92.30;;;;;;5095974;28;20036;-68
2021/07/19 10:12:38;;;;;;;9.88;2.67;;;20.70;92.40;;;;;;5096220;28;20071;-68
2021/07/19 10:15:05;;;;;;;7.60;2.30;;;20.20;92.40;;;;;;5095994;28;20083;-68
2021/07/19 10:17:32;;;;;;;7.63;3.20;;;20.10;93.00;;;;;;5096089;28;20418;-68
2021/07/19 10:19:58;;;;;;;7.38;3.08;;;20.30;95.10;;;;;;5095996;28;20069;-68
2021/07/19 10:22:24;;;;;;;5.13;2.95;;;19.80;94.60;;;;;;5096112;28;20036;-68
2021/07/19 10:24:51;;;;;;;6.93;3.53;;;19.90;95.40;;;;;;5095576;28;20104;-68
2021/07/19 10:27:29;;;;;;;6.55;3.33;;;20.00;96.30;;;;;;5095259;28;20040;-68
2021/07/19 10:29:55;;;;;;;12.23;3.95;;;19.80;95.50;;;;;;5095610;28;20487;-68
2021/07/19 10:32:23;;;;;;;8.18;3.70;;;19.90;96.60;;;;;;5095799;28;20047;-68
2021/07/19 10:34:51;;;;;;;6.95;3.55;;;19.60;96.60;;;;;;5095907;28;20138;-68
2021/07/19 10:37:32;;;;;;;6.63;3.45;;;19.60;97.20;;;;;;5095753;28;20036;-68
2021/07/19 10:39:59;;;;;;;8.68;3.97;;;20.00;97.80;;;;;;5095576;28;20044;-68
2021/07/19 10:42:36;;;;;;;6.88;3.58;;;19.90;97.50;;;;;;5095449;28;20047;-68
2021/07/19 10:45:12;;;;;;;9.30;4.05;;;19.50;95.80;;;;;;5095876;28;20043;-68
2021/07/19 10:47:54;;;;;;;7.47;3.53;;;19.70;96.60;;;;;;5094747;28;20048;-68
2021/07/19 10:50:25;;;;;;;7.10;4.07;;;19.80;95.20;;;;;;5095163;28;20032;-68
2021/07/19 10:52:51;;;;;;;9.98;4.45;;;20.10;96.70;;;;;;5095794;28;20063;-67
2021/07/19 10:55:25;;;;;;;7.07;3.75;;;20.40;97.30;;;;;;5095326;28;20036;-68
2021/07/19 10:58:06;;;;;;;9.23;4.00;;;20.50;97.40;;;;;;5093723;28;20511;-68
2021/07/19 11:00:41;;;;;;;9.57;4.32;;;20.10;93.90;;;;;;5095011;28;20036;-67
2021/07/19 11:03:15;;;;;;;8.55;4.05;;;20.30;96.00;;;;;;5095027;28;20117;-67
2021/07/19 11:05:44;;;;;;;7.50;3.75;;;20.40;96.20;;;;;;5095141;28;20494;-68
2021/07/19 11:08:24;;;;;;;6.57;3.65;;;20.30;94.90;;;;;;5093894;28;20081;-67
2021/07/19 11:10:53;;;;;;;7.55;3.95;;;20.40;95.60;;;;;;5094794;28;20039;-68
2021/07/19 11:13:35;;;;;;;8.00;4.55;;;20.20;93.00;;;;;;5094862;28;20043;-68
2021/07/19 11:16:16;;;;;;;7.88;4.32;;;20.30;93.90;;;;;;5095035;28;20042;-68
2021/07/19 11:19:02;;;;;;;9.18;5.32;;;20.30;94.60;;;;;;5094627;28;20040;-68
2021/07/19 11:21:30;;;;;;;8.88;5.22;;;20.00;94.30;;;;;;5094780;28;20515;-68
2021/07/19 11:24:06;;;;;;;11.65;5.95;;;19.90;96.20;;;;;;5095195;28;20036;-68
2021/07/19 11:26:32;;;;;;;8.88;5.68;;;20.10;96.20;;;;;;5094829;28;20165;-68
2021/07/19 11:28:59;;;;;;;14.05;6.20;;;20.40;95.00;;;;;;5094268;28;20483;-67
2021/07/19 11:31:30;;;;;;;13.90;6.10;;;20.30;94.90;;;;;;5094738;28;20118;-68
2021/07/19 11:34:05;;;;;;;8.77;6.13;;;20.30;94.60;;;;;;5094591;28;20529;-67
2021/07/19 11:36:46;;;;;;;11.20;7.07;;;19.90;93.00;;;;;;5094129;28;20067;-68
2021/07/19 11:39:19;;;;;;;7.40;5.90;;;20.30;93.80;;;;;;5094365;28;20036;-68
2021/07/19 11:41:45;;;;;;;;;;;20.70;94.30;;;;;;5095288;28;20048;-67
2021/07/19 11:44:17;;;;;;;11.57;7.22;;;20.40;92.70;;;;;;5094315;28;20326;-68
2021/07/19 11:46:44;;;;;;;11.82;7.20;;;20.50;94.60;;;;;;5094226;28;20048;-68
2021/07/19 11:49:13;;;;;;;9.32;6.03;;;20.10;92.80;;;;;;5093932;28;20085;-68
2021/07/19 11:51:42;;;;;;;12.68;7.40;;;20.60;91.40;;;;;;5094802;28;20119;-68
2021/07/19 11:54:12;;;;;;;10.75;7.47;;;20.60;91.20;;;;;;5094563;28;20125;-68
2021/07/19 11:56:53;;;;;;;12.68;7.80;;;20.70;91.30;;;;;;5094321;28;20575;-67
2021/07/19 11:59:20;;;;;;;11.00;7.90;;;20.60;90.90;;;;;;5094093;28;20043;-68
2021/07/19 12:01:55;;;;;;;10.80;8.02;;;20.80;92.60;;;;;;5093993;28;20507;-67
2021/07/19 12:04:22;;;;;;;12.95;8.68;;;20.80;90.70;;;;;;5094306;28;20044;-68
2021/07/19 12:06:52;;;;;;;14.65;8.45;;;20.60;93.40;;;;;;5094190;28;20496;-68
2021/07/19 12:09:19;;;;;;;15.10;8.48;;;20.30;93.60;;;;;;5093765;28;20483;-68
2021/07/19 12:11:54;;;;;;;12.07;8.15;;;20.20;92.70;;;;;;5093623;28;20036;-69
2021/07/19 12:14:20;;;;;;;13.02;9.07;;;20.30;94.50;;;;;;5094142;28;20131;-67
2021/07/19 12:16:46;;;;;;;10.82;7.95;;;20.30;96.60;;;;;;5094357;28;20074;-68
2021/07/19 12:19:19;;;;;;;16.88;7.90;;;20.60;96.70;;;;;;5093539;28;20074;-68
2021/07/19 12:21:48;;;;;;;10.35;7.75;;;20.70;95.30;;;;;;5094245;28;20059;-68
2021/07/19 12:24:15;;;;;;;10.98;7.85;;;20.70;94.20;;;;;;5093973;28;20051;-68
2021/07/19 12:26:43;;;;;;;17.95;9.45;;;20.30;93.00;;;;;;5093870;28;20050;-68
2021/07/19 12:29:12;;;;;;;12.70;8.80;;;20.50;94.20;;;;;;5093223;28;20044;-68
2021/07/19 12:31:48;;;;;;;11.93;8.23;;;20.70;94.90;;;;;;5093520;28;20040;-68
2021/07/19 12:34:22;;;;;;;12.95;8.93;;;20.80;95.90;;;;;;5093514;28;20510;-68
2021/07/19 12:36:52;;;;;;;14.15;10.18;;;20.70;94.70;;;;;;5094042;28;20055;-68
2021/07/19 12:39:21;;;;;;;13.27;9.95;;;20.50;95.90;;;;;;5093455;28;20090;-69
2021/07/19 12:41:48;;;;;;;15.52;9.75;;;20.20;93.50;;;;;;5091831;28;20040;-68
2021/07/19 12:44:17;;;;;;;14.55;9.32;;;19.90;94.60;;;;;;5093961;28;20476;-69
2021/07/19 12:46:45;;;;;;;11.77;9.38;;;19.90;94.60;;;;;;5094021;28;20055;-69